.
WxDataArchive / Data Records for 2010-02-13
2010-02-12 February 2010 2010-02-14

Data Records for Saturday, 13 February 2010

Time	Temp	Chill	HIndex	Humid	Dewpt	 Wind 	HiWind	WindDir	Rain 	Barom 
-----	----	-----	------	-----	-----	------	------	-------	-----	----- 
00:00	22.2	22.2	22.2	69	13.6	0	2	315	0.00	29.959 
00:05	22.2	22.2	22.2	69	13.6	1	3	315	0.00	29.959 
00:10	22.1	22.1	22.1	69	13.5	1	2	315	0.00	29.959 
00:15	22.1	22.1	22.1	69	13.5	1	2	315	0.00	29.959 
00:20	21.9	21.9	21.9	70	13.6	1	3	270	0.00	29.959 
00:25	21.8	21.8	21.8	70	13.5	0	2	270	0.00	29.959 
00:30	21.6	21.6	21.6	70	13.4	0	3	248	0.00	29.958 
00:35	21.6	21.6	21.6	71	13.7	1	2	248	0.00	29.958 
00:40	21.4	21.4	21.4	71	13.5	1	2	248	0.00	29.958 
00:45	21.3	21.3	21.3	72	13.7	1	2	248	0.00	29.957 
00:50	21.3	21.3	21.3	72	13.7	1	2	248	0.00	29.957 
00:55	21.1	21.1	21.1	73	13.8	1	2	270	0.00	29.957 
01:00	21.1	21.1	21.1	73	13.8	1	2	270	0.00	29.956 
01:05	21.1	21.1	21.1	73	13.8	1	2	270	0.00	29.956 
01:10	21.0	21.0	21.0	73	13.7	1	2	315	0.00	29.956 
01:15	21.0	21.0	21.0	73	13.7	1	2	315	0.00	29.956 
01:20	21.0	21.0	21.0	74	14.0	0	2	315	0.00	29.956 
01:25	21.0	21.0	21.0	74	14.0	0	1	315	0.00	29.956 
01:30	21.0	21.0	21.0	74	14.0	0	2	315	0.00	29.953 
01:35	20.8	20.8	20.8	74	13.8	0	3	248	0.00	29.953 
01:40	20.8	20.8	20.8	74	13.8	1	2	248	0.00	29.953 
01:45	20.6	20.6	20.6	74	13.7	1	2	248	0.00	29.947 
01:50	20.6	20.6	20.6	74	13.7	1	2	248	0.00	29.947 
01:55	20.5	20.5	20.5	75	13.9	0	2	248	0.00	29.947 
02:00	20.3	20.3	20.3	75	13.7	0	1	248	0.00	29.947 
02:05	20.2	20.2	20.2	75	13.6	0	1	248	0.00	29.947 
02:10	20.0	20.0	20.0	76	13.7	0	1	248	0.00	29.947 
02:15	19.9	19.9	19.9	76	13.6	1	2	248	0.00	29.946 
02:20	19.7	19.7	19.7	76	13.4	0	2	315	0.00	29.946 
02:25	19.4	19.4	19.4	77	13.4	0	2	248	0.00	29.946 
02:30	19.2	19.2	19.2	77	13.2	1	2	248	0.00	29.944 
02:35	19.1	19.1	19.1	77	13.1	0	2	248	0.00	29.944 
02:40	18.8	18.8	18.8	77	12.8	0	1	248	0.00	29.944 
02:45	18.6	18.6	18.6	78	12.9	0	1	248	0.00	29.943 
02:50	18.3	18.3	18.3	78	12.6	0	1	248	0.00	29.943 
02:55	18.1	18.1	18.1	79	12.7	0	1	248	0.00	29.943 
03:00	18.1	18.1	18.1	79	12.7	0	1	248	0.00	29.944 
03:05	18.1	18.1	18.1	80	13.0	0	1	248	0.00	29.944 
03:10	18.3	18.3	18.3	80	13.2	0	1	248	0.00	29.944 
03:15	18.4	18.4	18.4	81	13.6	0	1	248	0.00	29.943 
03:20	18.6	18.6	18.6	81	13.8	0	1	248	0.00	29.943 
03:25	18.6	18.6	18.6	81	13.8	0	1	248	0.00	29.943 
03:30	18.6	18.6	18.6	81	13.8	0	0	---	0.00	29.942 
03:35	18.6	18.6	18.6	81	13.8	0	1	248	0.00	29.942 
03:40	18.6	18.6	18.6	81	13.8	0	0	---	0.00	29.942 
03:45	18.6	18.6	18.6	81	13.8	0	1	248	0.00	29.935 
03:50	18.6	18.6	18.6	81	13.8	0	1	248	0.00	29.935 
03:55	18.8	18.8	18.8	81	14.0	0	1	248	0.00	29.935 
04:00	18.9	18.9	18.9	82	14.3	0	1	248	0.00	29.931 
04:05	19.1	19.1	19.1	82	14.5	0	1	248	0.00	29.931 
04:10	19.2	19.2	19.2	82	14.6	0	2	248	0.00	29.931 
04:15	19.4	19.4	19.4	82	14.8	0	2	248	0.00	29.930 
04:20	19.5	19.5	19.5	81	14.6	0	2	248	0.00	29.930 
04:25	19.7	19.7	19.7	81	14.8	0	1	248	0.00	29.930 
04:30	19.9	19.9	19.9	81	15.0	0	2	248	0.00	29.931 
04:35	19.9	19.9	19.9	81	15.0	0	1	248	0.00	29.931 
04:40	19.9	19.9	19.9	81	15.0	0	1	248	0.00	29.931 
04:45	20.0	20.0	20.0	81	15.1	0	1	248	0.00	29.931 
04:50	20.0	20.0	20.0	81	15.1	0	1	248	0.00	29.931 
04:55	20.0	20.0	20.0	81	15.1	0	2	248	0.00	29.931 
05:00	20.2	20.2	20.2	81	15.3	0	1	248	0.00	29.930 
05:05	20.2	20.2	20.2	81	15.3	0	1	248	0.00	29.930 
05:10	20.2	20.2	20.2	81	15.3	0	2	248	0.00	29.930 
05:15	20.3	20.3	20.3	81	15.4	0	2	248	0.00	29.929 
05:20	20.3	20.3	20.3	81	15.4	0	1	248	0.00	29.929 
05:25	20.3	20.3	20.3	81	15.4	0	2	248	0.00	29.929 
05:30	20.5	20.5	20.5	81	15.6	0	2	248	0.00	29.930 
05:35	20.5	20.5	20.5	81	15.6	0	3	248	0.00	29.930 
05:40	20.5	20.5	20.5	81	15.6	0	3	248	0.00	29.930 
05:45	20.3	20.3	20.3	81	15.4	0	2	248	0.00	29.932 
05:50	20.3	20.3	20.3	81	15.4	0	1	248	0.00	29.932 
05:55	20.3	20.3	20.3	81	15.4	0	2	248	0.00	29.932 
06:00	20.3	20.3	20.3	81	15.4	0	3	270	0.00	29.933 
06:05	20.3	20.3	20.3	81	15.4	1	3	248	0.00	29.933 
06:10	20.2	20.2	20.2	81	15.3	0	1	248	0.00	29.933 
06:15	20.2	20.2	20.2	81	15.3	1	3	248	0.00	29.933 
06:20	20.2	20.2	20.2	81	15.3	1	2	248	0.00	29.933 
06:25	20.2	20.2	20.2	81	15.3	0	1	270	0.00	29.933 
06:30	20.2	20.2	20.2	81	15.3	1	2	270	0.00	29.933 
06:35	20.0	20.0	20.0	81	15.1	0	1	270	0.00	29.933 
06:40	20.0	20.0	20.0	81	15.1	0	1	270	0.00	29.933 
06:45	20.0	20.0	20.0	81	15.1	0	2	270	0.00	29.933 
06:50	20.0	20.0	20.0	81	15.1	1	2	270	0.00	29.933 
06:55	20.0	20.0	20.0	81	15.1	0	2	270	0.00	29.933 
07:00	20.2	20.2	20.2	81	15.3	0	1	270	0.00	29.932 
07:05	20.2	20.2	20.2	81	15.3	0	2	270	0.00	29.932 
07:10	20.2	20.2	20.2	81	15.3	0	1	270	0.00	29.932 
07:15	20.2	20.2	20.2	81	15.3	0	2	270	0.00	29.929 
07:20	20.2	20.2	20.2	81	15.3	0	2	270	0.00	29.929 
07:25	20.2	20.2	20.2	81	15.3	0	2	270	0.00	29.929 
07:30	20.2	20.2	20.2	81	15.3	0	2	270	0.00	29.931 
07:35	20.0	20.0	20.0	81	15.1	0	1	270	0.00	29.931 
07:40	19.9	19.9	19.9	81	15.0	0	3	270	0.00	29.931 
07:45	19.5	19.5	19.5	81	14.6	0	2	270	0.00	29.933 
07:50	19.4	19.4	19.4	81	14.5	0	2	270	0.00	29.933 
07:55	19.2	19.2	19.2	81	14.3	0	1	270	0.00	29.933 
08:00	19.2	19.2	19.2	81	14.3	0	1	270	0.00	29.938 
08:05	19.1	19.1	19.1	81	14.2	0	1	270	0.00	29.938 
08:10	18.9	18.9	18.9	81	14.1	0	1	270	0.00	29.938 
08:15	18.9	18.9	18.9	81	14.1	0	1	270	0.00	29.939 
08:20	18.9	18.9	18.9	81	14.1	0	1	270	0.00	29.939 
08:25	19.1	19.1	19.1	82	14.5	0	1	270	0.00	29.939 
08:30	19.2	19.2	19.2	81	14.3	0	1	270	0.00	29.935 
08:35	19.5	19.5	19.5	81	14.6	1	3	270	0.00	29.935 
08:40	19.9	19.9	19.9	81	15.0	1	2	248	0.00	29.935 
08:45	20.2	20.2	20.2	80	15.0	1	3	248	0.00	29.934 
08:50	20.5	20.5	20.5	79	15.0	1	2	248	0.00	29.934 
08:55	21.1	21.1	21.1	79	15.6	1	3	248	0.00	29.934 
09:00	21.4	21.4	21.4	77	15.3	1	3	248	0.00	29.935 
09:05	21.6	21.6	21.6	76	15.2	1	3	248	0.00	29.935 
09:10	21.8	21.8	21.8	76	15.4	0	2	270	0.00	29.935 
09:15	21.8	21.8	21.8	75	15.1	1	2	270	0.00	29.934 
09:20	21.9	21.9	21.9	75	15.2	1	3	248	0.00	29.934 
09:25	22.1	22.1	22.1	74	15.1	1	2	248	0.00	29.934 
09:30	22.2	22.2	22.2	73	14.9	0	2	248	0.00	29.934 
09:35	22.4	22.4	22.4	73	15.1	1	4	248	0.00	29.934 
09:40	22.7	22.7	22.7	72	15.1	1	3	248	0.00	29.934 
09:45	23.2	23.2	23.2	72	15.5	0	2	248	0.00	29.932 
09:50	23.8	23.8	23.8	71	15.8	1	4	248	0.00	29.932 
09:55	24.2	24.2	24.2	70	15.9	1	3	248	0.00	29.932 
10:00	24.4	24.4	24.4	69	15.7	1	4	270	0.00	29.931 
10:05	24.4	24.4	24.4	68	15.4	1	2	248	0.00	29.931 
10:10	24.5	24.5	24.5	69	15.8	1	4	248	0.00	29.931 
10:15	24.7	24.7	24.7	68	15.7	2	4	248	0.00	29.934 
10:20	24.8	24.8	24.8	68	15.8	1	2	248	0.00	29.934 
10:25	25.0	25.0	25.0	68	16.0	1	3	248	0.00	29.934 
10:30	25.1	25.1	25.1	68	16.1	1	3	248	0.00	29.934 
10:35	25.4	25.4	25.4	68	16.3	1	2	248	0.00	29.934 
10:40	25.4	25.4	25.4	67	16.0	1	3	248	0.00	29.934 
10:45	25.4	25.4	25.4	67	16.0	1	4	248	0.00	29.930 
10:50	25.6	25.6	25.6	68	16.5	1	3	248	0.00	29.930 
10:55	25.7	25.7	25.7	68	16.6	1	3	248	0.00	29.930 
11:00	25.6	25.6	25.6	67	16.2	1	5	270	0.00	29.935 
11:05	25.4	25.4	25.4	68	16.3	1	4	270	0.00	29.935 
11:10	25.3	25.3	25.3	67	15.9	2	4	270	0.00	29.935 
11:15	25.0	25.0	25.0	68	16.0	2	4	248	0.00	29.941 
11:20	25.0	25.0	25.0	69	16.3	1	3	248	0.00	29.941 
11:25	25.3	25.3	25.3	69	16.6	1	3	248	0.00	29.941 
11:30	25.7	25.7	25.7	68	16.6	1	4	248	0.00	29.938 
11:35	25.7	25.7	25.7	66	15.9	2	4	315	0.00	29.938 
11:40	25.8	25.8	25.8	66	16.0	1	3	248	0.00	29.938 
11:45	26.0	26.0	26.0	65	15.9	1	3	270	0.00	29.938 
11:50	26.1	26.1	26.1	65	16.0	1	3	270	0.00	29.938 
11:55	26.4	26.4	26.4	65	16.3	1	4	270	0.00	29.938 
12:00	26.4	26.4	26.4	64	15.9	2	5	248	0.00	29.929 
12:05	26.7	26.7	26.7	64	16.2	1	3	270	0.00	29.929 
12:10	27.2	27.2	27.2	64	16.7	1	5	270	0.00	29.929 
12:15	27.6	27.6	27.6	63	16.7	2	3	248	0.00	29.927 
12:20	27.8	27.8	27.8	62	16.5	1	4	248	0.00	29.927 
12:25	27.9	27.9	27.9	62	16.6	2	6	270	0.00	29.927 
12:30	27.9	27.9	27.9	62	16.6	2	5	248	0.00	29.925 
12:35	27.9	27.9	27.9	60	15.8	2	4	292	0.00	29.925 
12:40	28.4	28.4	28.4	61	16.7	2	10	292	0.00	29.925 
12:45	28.4	28.4	28.4	58	15.5	3	7	270	0.00	29.919 
12:50	28.1	28.1	28.1	57	14.9	3	7	270	0.00	29.919 
12:55	28.1	28.1	28.1	57	14.9	2	4	292	0.00	29.919 
13:00	28.1	28.1	28.1	57	14.9	3	5	292	0.00	29.913 
13:05	28.4	28.4	28.4	56	14.7	2	6	270	0.00	29.913 
13:10	28.5	28.5	28.5	54	14.0	2	6	270	0.00	29.913 
13:15	28.7	28.7	28.7	54	14.2	2	4	248	0.00	29.913 
13:20	29.1	29.1	29.1	53	14.1	2	5	270	0.00	29.913 
13:25	29.4	29.4	29.4	51	13.5	2	4	270	0.00	29.913 
13:30	29.7	29.7	29.7	51	13.8	3	5	270	0.00	29.903 
13:35	30.0	30.0	30.0	51	14.1	2	4	248	0.00	29.903 
13:40	30.1	30.1	30.1	50	13.7	2	6	270	0.00	29.903 
13:45	30.4	30.4	30.4	50	14.0	2	5	270	0.00	29.901 
13:50	30.4	30.4	30.4	50	14.0	2	7	270	0.00	29.901 
13:55	30.1	30.1	30.1	51	14.2	3	9	248	0.00	29.901 
14:00	30.0	30.0	30.0	50	13.6	2	6	270	0.00	29.895 
14:05	30.1	30.1	30.1	50	13.7	2	5	248	0.00	29.895 
14:10	30.4	30.4	30.4	50	14.0	3	7	248	0.00	29.895 
14:15	30.3	30.3	30.3	51	14.4	3	7	270	0.00	29.895 
14:20	30.1	30.1	30.1	52	14.6	2	6	270	0.00	29.895 
14:25	30.1	30.1	30.1	52	14.6	2	4	270	0.00	29.895 
14:30	30.3	30.3	30.3	53	15.2	1	6	270	0.00	29.890 
14:35	30.4	30.4	30.4	52	14.9	2	5	248	0.00	29.890 
14:40	29.8	29.8	29.8	53	14.8	3	5	270	0.00	29.890 
14:45	29.7	29.7	29.7	53	14.7	2	5	292	0.00	29.890 
14:50	29.8	29.8	29.8	54	15.2	2	6	270	0.00	29.890 
14:55	29.7	29.7	29.7	55	15.5	3	6	270	0.00	29.890 
15:00	29.4	29.4	29.4	54	14.8	3	10	270	0.00	29.890 
15:05	29.4	29.4	29.4	54	14.8	3	6	270	0.00	29.890 
15:10	29.1	29.1	29.1	56	15.4	3	5	270	0.00	29.890 
15:15	29.1	29.1	29.1	57	15.8	2	6	292	0.00	29.895 
15:20	29.4	29.4	29.4	57	16.1	2	9	270	0.00	29.895 
15:25	29.5	29.5	29.5	56	15.8	2	5	270	0.00	29.895 
15:30	29.7	29.7	29.7	56	15.9	2	11	270	0.00	29.897 
15:35	29.5	29.5	29.5	57	16.2	2	6	270	0.00	29.897 
15:40	29.3	29.3	29.3	56	15.6	3	7	270	0.00	29.897 
15:45	29.1	29.1	29.1	58	16.2	2	6	248	0.00	29.898 
15:50	29.1	29.1	29.1	59	16.6	2	5	225	0.00	29.898 
15:55	29.1	29.1	29.1	59	16.6	2	5	270	0.00	29.898 
16:00	29.1	29.1	29.1	59	16.6	2	6	248	0.00	29.896 
16:05	29.0	29.0	29.0	59	16.5	3	6	248	0.00	29.896 
16:10	29.0	29.0	29.0	60	16.9	2	4	248	0.00	29.896 
16:15	28.8	28.8	28.8	60	16.7	3	7	248	0.00	29.896 
16:20	28.7	28.7	28.7	60	16.6	2	6	270	0.00	29.896 
16:25	28.5	28.5	28.5	61	16.8	3	6	292	0.00	29.896 
16:30	28.2	28.2	28.2	61	16.5	2	6	248	0.00	29.899 
16:35	28.1	28.1	28.1	61	16.4	3	10	248	0.00	29.899 
16:40	28.1	28.1	28.1	62	16.8	2	5	270	0.00	29.899 
16:45	28.1	28.1	28.1	62	16.8	1	4	292	0.00	29.900 
16:50	28.1	28.1	28.1	61	16.4	2	6	270	0.00	29.900 
16:55	27.9	27.9	27.9	61	16.2	2	5	270	0.00	29.900 
17:00	27.9	27.9	27.9	61	16.2	2	5	270	0.00	29.901 
17:05	27.8	27.8	27.8	60	15.7	2	5	248	0.00	29.901 
17:10	27.8	27.8	27.8	61	16.1	1	3	270	0.00	29.901 
17:15	27.8	27.8	27.8	61	16.1	1	3	270	0.00	29.905 
17:20	27.8	27.8	27.8	61	16.1	1	3	248	0.00	29.905 
17:25	27.8	27.8	27.8	60	15.7	2	4	270	0.00	29.905 
17:30	27.9	27.9	27.9	59	15.5	3	5	270	0.00	29.909 
17:35	27.9	27.9	27.9	60	15.8	2	4	270	0.00	29.909 
17:40	27.9	27.9	27.9	60	15.8	2	4	270	0.00	29.909 
17:45	27.9	27.9	27.9	59	15.5	2	4	248	0.00	29.912 
17:50	27.8	27.8	27.8	60	15.7	2	3	248	0.00	29.912 
17:55	27.8	27.8	27.8	60	15.7	2	3	292	0.00	29.912 
18:00	27.8	27.8	27.8	61	16.1	1	3	248	0.00	29.914 
18:05	27.8	27.8	27.8	61	16.1	1	3	338	0.00	29.914 
18:10	27.6	27.6	27.6	62	16.3	2	4	270	0.00	29.914 
18:15	27.6	27.6	27.6	62	16.3	2	5	270	0.00	29.914 
18:20	27.5	27.5	27.5	62	16.2	2	4	292	0.00	29.914 
18:25	27.5	27.5	27.5	62	16.2	3	6	270	0.00	29.914 
18:30	27.5	27.5	27.5	62	16.2	2	5	270	0.00	29.915 
18:35	27.5	27.5	27.5	62	16.2	2	5	270	0.00	29.915 
18:40	27.3	27.3	27.3	62	16.0	2	4	338	0.00	29.915 
18:45	27.3	27.3	27.3	62	16.0	2	4	248	0.00	29.918 
18:50	27.3	27.3	27.3	63	16.4	2	6	270	0.00	29.918 
18:55	27.3	27.3	27.3	63	16.4	2	4	248	0.00	29.918 
19:00	27.2	27.2	27.2	63	16.3	1	3	270	0.00	29.918 
19:05	27.2	27.2	27.2	63	16.3	2	4	270	0.00	29.918 
19:10	27.2	27.2	27.2	63	16.3	2	5	270	0.00	29.918 
19:15	27.0	27.0	27.0	64	16.5	1	4	270	0.00	29.920 
19:20	27.0	27.0	27.0	64	16.5	2	4	270	0.00	29.920 
19:25	27.0	27.0	27.0	65	16.8	2	4	270	0.00	29.920 
19:30	27.0	27.0	27.0	66	17.2	1	5	270	0.00	29.917 
19:35	27.0	27.0	27.0	67	17.5	1	4	270	0.00	29.917 
19:40	27.0	27.0	27.0	68	17.9	1	6	270	0.00	29.917 
19:45	27.0	27.0	27.0	69	18.2	2	4	270	0.00	29.916 
19:50	26.9	26.9	26.9	69	18.1	2	4	270	0.00	29.916 
19:55	26.9	26.9	26.9	70	18.4	0	3	270	0.00	29.916 
20:00	26.9	26.9	26.9	70	18.4	1	3	315	0.00	29.916 
20:05	26.9	26.9	26.9	71	18.8	1	3	315	0.00	29.916 
20:10	26.9	26.9	26.9	72	19.1	2	4	248	0.00	29.916 
20:15	26.9	26.9	26.9	72	19.1	2	5	270	0.00	29.918 
20:20	26.7	26.7	26.7	73	19.2	2	3	270	0.00	29.918 
20:25	26.7	26.7	26.7	73	19.2	1	3	270	0.00	29.918 
20:30	26.7	26.7	26.7	73	19.2	2	4	270	0.00	29.915 
20:35	26.7	26.7	26.7	74	19.5	2	4	270	0.00	29.915 
20:40	26.7	26.7	26.7	74	19.5	2	4	248	0.00	29.915 
20:45	26.6	26.6	26.6	74	19.5	2	5	270	0.00	29.919 
20:50	26.6	26.6	26.6	75	19.8	1	3	270	0.00	29.919 
20:55	26.6	26.6	26.6	75	19.8	1	3	270	0.00	29.919 
21:00	26.6	26.6	26.6	75	19.8	2	5	248	0.00	29.914 
21:05	26.6	26.6	26.6	76	20.1	2	6	270	0.00	29.914 
21:10	26.4	26.4	26.4	76	19.9	2	6	248	0.00	29.914 
21:15	26.4	26.4	26.4	76	19.9	2	3	248	0.00	29.913 
21:20	26.4	26.4	26.4	76	19.9	1	4	292	0.00	29.913 
21:25	26.4	26.4	26.4	76	19.9	2	5	270	0.00	29.913 
21:30	26.4	26.4	26.4	76	19.9	1	4	248	0.00	29.916 
21:35	26.4	26.4	26.4	76	19.9	2	5	248	0.00	29.916 
21:40	26.4	26.4	26.4	77	20.2	2	5	248	0.00	29.916 
21:45	26.4	26.4	26.4	77	20.2	1	3	270	0.00	29.914 
21:50	26.4	26.4	26.4	77	20.2	2	5	248	0.00	29.914 
21:55	26.4	26.4	26.4	77	20.2	2	5	248	0.00	29.914 
22:00	26.4	26.4	26.4	77	20.2	2	4	248	0.00	29.916 
22:05	26.6	26.6	26.6	76	20.1	2	4	270	0.00	29.916 
22:10	26.6	26.6	26.6	76	20.1	2	5	225	0.00	29.916 
22:15	26.6	26.6	26.6	76	20.1	1	3	248	0.00	29.914 
22:20	26.6	26.6	26.6	76	20.1	2	4	248	0.00	29.914 
22:25	26.6	26.6	26.6	76	20.1	1	4	248	0.00	29.914 
22:30	26.3	26.3	26.3	75	19.5	2	7	270	0.00	29.913 
22:35	26.0	26.0	26.0	75	19.2	1	4	270	0.00	29.913 
22:40	25.7	25.7	25.7	75	18.9	1	2	248	0.00	29.913 
22:45	25.6	25.6	25.6	75	18.8	1	4	248	0.00	29.911 
22:50	25.4	25.4	25.4	75	18.6	2	4	248	0.00	29.911 
22:55	25.3	25.3	25.3	75	18.5	1	5	248	0.00	29.911 
23:00	25.3	25.3	25.3	75	18.5	2	6	248	0.00	29.915 
23:05	25.1	25.1	25.1	75	18.3	1	4	248	0.00	29.915 
23:10	25.0	25.0	25.0	75	18.2	1	4	225	0.00	29.915 
23:15	25.0	25.0	25.0	75	18.2	1	4	248	0.00	29.917 
23:20	24.8	24.8	24.8	75	18.0	1	4	225	0.00	29.917 
23:25	24.8	24.8	24.8	75	18.0	1	3	248	0.00	29.917 
23:30	24.8	24.8	24.8	75	18.0	1	3	248	0.00	29.916 
23:35	24.8	24.8	24.8	75	18.0	1	3	248	0.00	29.916 
23:40	24.8	24.8	24.8	75	18.0	1	3	248	0.00	29.916 
23:45	24.8	24.8	24.8	75	18.0	1	5	248	0.00	29.913 
23:50	24.8	24.8	24.8	75	18.0	1	4	248	0.00	29.913 
23:55	24.7	24.7	24.7	75	17.9	1	3	248	0.00	29.913 

CoCoRaHS
IN-AL-39
A2 Web Hosting
Creative Commons License
GoDaddy
search engine by freefind advanced

loaded 2018-11-13 17:23:38 • last modified 2010-11-18 10:43:29
Privacy PolicyDisclaimer
• wx.awcolley.com is powered by PmWiki v.2002016 •
• all content (unless otherwise noted) © 2018 A W Colley